Time;durP1;ratioP1;P1;durP2;ratioP2;P2;SDS_P1;SDS_P2;PMS_P1;PMS_P2;Temp;Humidity;BMP_temperature;BMP_pressure;BME280_temperature;BME280_humidity;BME280_pressure;Samples;Min_cycle;Max_cycle;Signal;HPM_P1;HPM_P2
2022/05/17 00:00:09;;;;;;;0.10;0.10;;;14.80;99.90;;;;;;5070867;28;20642;-60
2022/05/17 00:02:36;;;;;;;0.10;0.10;;;14.80;99.90;;;;;;5071610;28;20299;-61
2022/05/17 00:05:04;;;;;;;0.10;0.10;;;14.80;99.90;;;;;;5071428;28;20861;-61
2022/05/17 00:07:32;;;;;;;0.10;0.10;;;14.70;99.90;;;;;;5070900;28;20228;-61
2022/05/17 00:09:58;;;;;;;0.10;0.10;;;14.70;99.90;;;;;;5071611;28;20258;-61
2022/05/17 00:12:25;;;;;;;0.10;0.10;;;14.60;99.90;;;;;;5071601;28;20229;-61
2022/05/17 00:14:52;;;;;;;0.10;0.10;;;14.60;99.90;;;;;;5070574;28;20209;-60
2022/05/17 00:17:19;;;;;;;0.20;0.20;;;14.60;99.90;;;;;;5070651;28;20216;-61
2022/05/17 00:19:46;;;;;;;0.20;0.20;;;14.50;99.90;;;;;;5071607;28;20205;-59
2022/05/17 00:22:13;;;;;;;0.10;0.10;;;14.50;99.90;;;;;;5071442;28;20719;-61
2022/05/17 00:24:41;;;;;;;0.10;0.10;;;14.50;99.90;;;;;;5071561;28;20695;-61
2022/05/17 00:27:08;;;;;;;0.20;0.20;;;14.50;99.90;;;;;;5071043;28;20225;-60
2022/05/17 00:29:35;;;;;;;0.10;0.10;;;14.40;99.90;;;;;;5071582;28;20209;-61
2022/05/17 00:32:03;;;;;;;0.10;0.10;;;14.40;99.90;;;;;;5071358;28;20949;-61
2022/05/17 00:34:31;;;;;;;0.10;0.10;;;14.30;99.90;;;;;;5071175;28;20233;-60
2022/05/17 00:36:57;;;;;;;0.10;0.10;;;14.30;99.90;;;;;;5070915;28;20329;-61
2022/05/17 00:39:24;;;;;;;0.10;0.10;;;14.20;99.90;;;;;;5071325;28;20209;-59
2022/05/17 00:41:52;;;;;;;0.10;0.10;;;14.20;99.90;;;;;;5074557;28;20224;-58
2022/05/17 00:47:08;;;;;;;0.10;0.10;;;14.20;99.90;;;;;;5074571;28;20231;-61
2022/05/17 00:49:40;;;;;;;0.30;0.30;;;14.20;99.90;;;;;;5074909;28;20721;-60
2022/05/17 00:52:18;;;;;;;0.10;0.10;;;14.10;99.90;;;;;;5075077;28;20237;-61
2022/05/17 00:54:46;;;;;;;0.10;0.10;;;14.00;99.90;;;;;;5075008;28;20213;-59
2022/05/17 00:57:21;;;;;;;0.10;0.10;;;14.00;99.90;;;;;;5074461;28;20270;-59
2022/05/17 00:59:49;;;;;;;0.20;0.20;;;14.00;99.90;;;;;;5074696;28;20273;-60
2022/05/17 01:02:15;;;;;;;0.10;0.10;;;13.90;99.90;;;;;;5074696;28;20294;-61
2022/05/17 01:04:42;;;;;;;0.20;0.20;;;13.90;99.90;;;;;;5074740;28;20207;-61
2022/05/17 01:07:14;;;;;;;0.10;0.10;;;13.90;99.90;;;;;;5074345;28;20271;-60
2022/05/17 01:09:40;;;;;;;0.10;0.10;;;13.90;99.90;;;;;;5075079;28;20257;-60
2022/05/17 01:12:08;;;;;;;0.10;0.10;;;13.90;99.90;;;;;;5074453;28;20266;-59
2022/05/17 01:17:22;;;;;;;0.10;0.10;;;13.90;99.90;;;;;;5074113;28;20212;-58
2022/05/17 01:19:49;;;;;;;0.10;0.10;;;13.80;99.90;;;;;;5074304;28;20694;-59
2022/05/17 01:22:17;;;;;;;0.10;0.10;;;13.80;99.90;;;;;;5074441;28;20632;-60
2022/05/17 01:24:44;;;;;;;0.10;0.10;;;13.80;99.90;;;;;;5074376;28;20291;-61
2022/05/17 01:27:14;;;;;;;0.10;0.10;;;13.70;99.90;;;;;;5074200;28;20297;-60
2022/05/17 01:29:43;;;;;;;0.17;0.17;;;13.70;99.90;;;;;;5074204;28;20682;-60
2022/05/17 01:32:11;;;;;;;0.10;0.10;;;13.70;99.90;;;;;;5074345;28;20274;-61
2022/05/17 01:34:39;;;;;;;0.10;0.10;;;13.70;99.90;;;;;;5074279;28;20205;-58
2022/05/17 01:37:06;;;;;;;0.10;0.10;;;13.60;99.90;;;;;;5073347;28;20262;-60
2022/05/17 01:39:36;;;;;;;0.10;0.10;;;13.60;99.90;;;;;;5074470;28;20209;-60
2022/05/17 01:42:03;;;;;;;0.10;0.10;;;13.60;99.90;;;;;;5073995;28;20229;-61
2022/05/17 01:44:30;;;;;;;0.10;0.10;;;13.60;99.90;;;;;;5074289;28;20211;-58
2022/05/17 01:46:57;;;;;;;0.13;0.13;;;13.50;99.90;;;;;;5073519;28;20227;-58
2022/05/17 01:49:24;;;;;;;0.07;0.07;;;13.50;99.90;;;;;;5074129;28;20212;-59
2022/05/17 01:51:50;;;;;;;0.10;0.10;;;13.50;99.90;;;;;;5072516;28;20229;-60
2022/05/17 01:54:17;;;;;;;0.10;0.10;;;13.50;99.90;;;;;;5074144;28;20262;-60
2022/05/17 01:56:45;;;;;;;0.10;0.10;;;13.40;99.90;;;;;;5072733;28;20736;-60
2022/05/17 01:59:13;;;;;;;0.10;0.10;;;13.40;99.90;;;;;;5073764;28;20213;-60
2022/05/17 02:01:40;;;;;;;0.43;0.43;;;13.40;99.90;;;;;;5073633;28;20230;-61
2022/05/17 02:04:07;;;;;;;0.10;0.10;;;13.40;99.90;;;;;;5073530;28;20296;-61
2022/05/17 02:06:33;;;;;;;0.10;0.10;;;13.40;99.90;;;;;;5073122;28;20205;-61
2022/05/17 02:09:00;;;;;;;0.10;0.10;;;13.40;99.90;;;;;;5073495;28;20253;-60
2022/05/17 02:11:27;;;;;;;0.10;0.10;;;13.30;99.90;;;;;;5073579;28;20281;-61
2022/05/17 02:13:55;;;;;;;0.10;0.10;;;13.40;99.90;;;;;;5073548;28;20208;-60
2022/05/17 02:16:21;;;;;;;0.10;0.10;;;13.40;99.90;;;;;;5073005;28;20216;-59
2022/05/17 02:18:48;;;;;;;0.00;0.00;;;13.40;99.90;;;;;;5073064;28;20199;-56
2022/05/17 02:21:15;;;;;;;0.10;0.10;;;13.30;99.90;;;;;;5072955;28;20700;-59
2022/05/17 02:23:41;;;;;;;0.10;0.10;;;13.30;99.90;;;;;;5073537;28;20254;-60
2022/05/17 02:26:08;;;;;;;0.37;0.37;;;13.30;99.90;;;;;;5073259;28;20268;-61
2022/05/17 02:28:35;;;;;;;0.10;0.10;;;13.30;99.90;;;;;;5073281;28;20284;-60
2022/05/17 02:31:04;;;;;;;0.10;0.10;;;13.30;99.90;;;;;;5073303;28;20205;-61
2022/05/17 02:33:31;;;;;;;0.10;0.10;;;13.30;99.90;;;;;;5072896;28;20235;-60
2022/05/17 02:35:57;;;;;;;0.70;0.70;;;13.30;99.90;;;;;;5072462;28;20675;-60
2022/05/17 02:38:24;;;;;;;0.10;0.10;;;13.30;99.90;;;;;;5073069;28;20243;-61
2022/05/17 02:40:51;;;;;;;0.10;0.10;;;13.20;99.90;;;;;;5072657;28;20262;-60
2022/05/17 02:43:17;;;;;;;0.10;0.10;;;13.20;99.90;;;;;;5072693;28;20219;-60
2022/05/17 02:45:44;;;;;;;0.10;0.10;;;13.20;99.90;;;;;;5072828;28;20257;-61
2022/05/17 02:48:12;;;;;;;0.23;0.23;;;13.20;99.90;;;;;;5072276;28;20730;-60
2022/05/17 02:50:39;;;;;;;0.10;0.10;;;13.20;99.90;;;;;;5072676;28;20212;-61
2022/05/17 02:53:06;;;;;;;0.10;0.10;;;13.20;99.90;;;;;;5072752;28;20575;-59
2022/05/17 02:55:32;;;;;;;0.60;0.60;;;13.10;99.90;;;;;;5072555;28;20214;-59
2022/05/17 02:57:59;;;;;;;0.10;0.10;;;13.10;99.90;;;;;;5072226;28;20616;-60
2022/05/17 03:00:26;;;;;;;0.10;0.10;;;13.10;99.90;;;;;;5072350;28;20206;-59
2022/05/17 03:02:53;;;;;;;1.60;1.50;;;13.10;99.90;;;;;;5072455;28;20310;-61
2022/05/17 03:05:21;;;;;;;0.30;0.30;;;13.10;99.90;;;;;;5072607;28;20209;-60
2022/05/17 03:07:48;;;;;;;0.10;0.10;;;13.10;99.90;;;;;;5071969;28;20580;-61
2022/05/17 03:10:15;;;;;;;0.10;0.10;;;13.10;99.90;;;;;;5072459;28;20292;-61
2022/05/17 03:12:42;;;;;;;0.10;0.10;;;13.10;99.90;;;;;;5072348;28;20228;-60
2022/05/17 03:15:10;;;;;;;0.10;0.10;;;13.10;99.90;;;;;;5072457;28;20216;-61
2022/05/17 03:17:37;;;;;;;0.10;0.10;;;13.10;99.90;;;;;;5071978;28;20207;-61
2022/05/17 03:20:04;;;;;;;0.10;0.10;;;13.10;99.90;;;;;;5072356;28;20267;-61
2022/05/17 03:22:33;;;;;;;0.10;0.10;;;13.10;99.90;;;;;;5072190;28;20594;-61
2022/05/17 03:24:59;;;;;;;0.10;0.10;;;13.10;99.90;;;;;;5072188;28;20207;-61
2022/05/17 03:27:26;;;;;;;0.10;0.10;;;13.10;99.90;;;;;;5071767;28;20764;-60
2022/05/17 03:29:53;;;;;;;0.10;0.10;;;13.00;99.90;;;;;;5072080;28;20340;-61
2022/05/17 03:32:19;;;;;;;0.10;0.10;;;13.00;99.90;;;;;;5072212;28;20228;-60
2022/05/17 03:34:46;;;;;;;0.20;0.20;;;13.00;99.90;;;;;;5072170;28;20285;-60
2022/05/17 03:37:13;;;;;;;0.10;0.10;;;13.00;99.90;;;;;;5071895;28;20208;-61
2022/05/17 03:39:41;;;;;;;0.10;0.10;;;13.00;99.90;;;;;;5071722;28;20211;-60
2022/05/17 03:42:09;;;;;;;0.10;0.10;;;13.00;99.90;;;;;;5071839;28;20232;-61
2022/05/17 03:44:36;;;;;;;0.10;0.10;;;13.00;99.90;;;;;;5072201;28;20552;-61
2022/05/17 03:47:05;;;;;;;0.10;0.10;;;13.00;99.90;;;;;;5071607;28;20204;-60
2022/05/17 03:49:32;;;;;;;0.10;0.10;;;13.10;99.90;;;;;;5071887;28;20205;-60
2022/05/17 03:51:58;;;;;;;0.10;0.10;;;13.10;99.90;;;;;;5071726;28;20695;-60
2022/05/17 03:54:25;;;;;;;1.23;1.00;;;13.10;99.90;;;;;;5071735;28;20216;-60
2022/05/17 03:56:53;;;;;;;0.10;0.10;;;13.10;99.90;;;;;;5071093;28;20207;-61
2022/05/17 03:59:20;;;;;;;0.10;0.10;;;13.10;99.90;;;;;;5072140;28;20201;-60
2022/05/17 04:01:47;;;;;;;0.10;0.10;;;13.10;99.90;;;;;;5071566;28;20791;-60
2022/05/17 04:04:14;;;;;;;0.20;0.20;;;13.20;99.90;;;;;;5071737;28;20209;-61
2022/05/17 04:06:41;;;;;;;0.10;0.10;;;13.20;99.90;;;;;;5071497;28;20208;-60
2022/05/17 04:09:10;;;;;;;0.10;0.10;;;13.20;99.90;;;;;;5071689;28;20275;-60
2022/05/17 04:11:37;;;;;;;0.10;0.10;;;13.30;99.90;;;;;;5071865;28;20266;-60
2022/05/17 04:14:06;;;;;;;0.60;0.60;;;13.30;99.90;;;;;;5071689;28;20200;-61
2022/05/17 04:16:34;;;;;;;0.10;0.10;;;13.40;99.90;;;;;;5074496;28;20270;-60
2022/05/17 04:19:01;;;;;;;0.10;0.10;;;13.40;99.90;;;;;;5075926;28;20205;-60
2022/05/17 04:21:29;;;;;;;0.10;0.10;;;13.40;99.90;;;;;;5075923;28;20232;-60
2022/05/17 04:23:56;;;;;;;0.30;0.30;;;13.40;99.90;;;;;;5075567;28;20212;-60
2022/05/17 04:26:23;;;;;;;0.10;0.10;;;13.50;99.90;;;;;;5075069;28;20266;-60
2022/05/17 04:28:50;;;;;;;0.10;0.10;;;13.50;99.90;;;;;;5075480;28;20225;-61
2022/05/17 04:31:18;;;;;;;0.10;0.10;;;13.60;99.90;;;;;;5075156;28;20732;-56
2022/05/17 04:33:45;;;;;;;0.10;0.10;;;13.60;99.90;;;;;;5075224;28;20216;-59
2022/05/17 04:36:12;;;;;;;0.10;0.10;;;13.60;99.90;;;;;;5074812;28;20212;-59
2022/05/17 04:38:39;;;;;;;0.10;0.10;;;13.70;99.90;;;;;;5075200;28;20295;-61
2022/05/17 04:41:06;;;;;;;0.10;0.10;;;13.80;99.90;;;;;;5075336;28;20213;-60
2022/05/17 04:43:32;;;;;;;0.10;0.10;;;13.80;99.90;;;;;;5075082;28;20208;-60
2022/05/17 04:45:59;;;;;;;0.10;0.10;;;13.80;99.90;;;;;;5072895;28;20544;-61
2022/05/17 04:48:27;;;;;;;0.10;0.10;;;13.80;99.90;;;;;;5073414;28;20224;-60
2022/05/17 04:50:54;;;;;;;0.10;0.10;;;13.90;99.90;;;;;;5074661;28;20318;-60
2022/05/17 04:53:21;;;;;;;0.10;0.10;;;14.00;99.90;;;;;;5074744;28;20207;-60
2022/05/17 04:55:48;;;;;;;0.10;0.10;;;14.00;99.90;;;;;;5074713;28;20200;-61
2022/05/17 04:58:14;;;;;;;0.10;0.10;;;14.10;99.90;;;;;;5074606;28;20251;-58
2022/05/17 05:00:41;;;;;;;0.10;0.10;;;14.10;99.90;;;;;;5074454;28;20205;-63
2022/05/17 05:03:08;;;;;;;0.23;0.23;;;14.20;99.90;;;;;;5074464;28;20228;-61
2022/05/17 05:05:36;;;;;;;0.10;0.10;;;14.30;99.90;;;;;;5074113;28;20201;-61
2022/05/17 05:08:02;;;;;;;0.10;0.10;;;14.50;99.90;;;;;;5074239;28;20228;-61
2022/05/17 05:10:29;;;;;;;0.10;0.10;;;14.60;99.90;;;;;;5074809;28;20201;-61
2022/05/17 05:12:56;;;;;;;0.10;0.10;;;14.70;99.90;;;;;;5074291;28;20229;-61
2022/05/17 05:15:23;;;;;;;0.10;0.10;;;14.80;99.90;;;;;;5074167;28;20671;-64
2022/05/17 05:17:49;;;;;;;0.10;0.10;;;14.90;99.90;;;;;;5062554;28;20247;-62
2022/05/17 05:20:17;;;;;;;0.10;0.10;;;15.00;99.90;;;;;;5073749;28;20204;-63
2022/05/17 05:22:45;;;;;;;0.03;0.03;;;15.20;99.90;;;;;;5073826;28;20726;-64
2022/05/17 05:25:13;;;;;;;0.10;0.10;;;15.30;99.90;;;;;;5073792;28;20278;-63
2022/05/17 05:27:41;;;;;;;0.00;0.00;;;15.40;99.90;;;;;;5073349;28;20209;-63
2022/05/17 05:30:12;;;;;;;0.00;0.00;;;15.50;99.90;;;;;;5073463;28;20205;-63
2022/05/17 05:32:38;;;;;;;0.00;0.00;;;15.60;99.90;;;;;;5073247;28;20232;-63
2022/05/17 05:35:06;;;;;;;0.00;0.00;;;15.70;99.90;;;;;;5073605;28;20622;-63
2022/05/17 05:37:33;;;;;;;0.00;0.00;;;15.80;99.90;;;;;;5073250;28;20220;-61
2022/05/17 05:40:02;;;;;;;0.00;0.00;;;15.90;99.90;;;;;;5073406;28;20729;-62
2022/05/17 05:42:29;;;;;;;0.10;0.10;;;16.00;99.90;;;;;;5073264;28;20225;-62
2022/05/17 05:44:56;;;;;;;0.10;0.10;;;16.00;99.90;;;;;;5073551;28;20255;-64
2022/05/17 05:47:22;;;;;;;0.10;0.10;;;16.00;99.90;;;;;;5072584;28;20209;-63
2022/05/17 05:49:49;;;;;;;0.73;0.73;;;16.10;99.90;;;;;;5073036;28;20225;-62
2022/05/17 05:52:16;;;;;;;0.00;0.00;;;16.10;99.90;;;;;;5073584;28;20304;-66
2022/05/17 05:54:42;;;;;;;0.10;0.10;;;16.20;99.90;;;;;;5072983;28;20201;-61
2022/05/17 05:57:11;;;;;;;0.00;0.00;;;16.30;99.90;;;;;;5073041;28;20215;-62
2022/05/17 05:59:38;;;;;;;0.00;0.00;;;16.40;99.90;;;;;;5072549;28;20208;-62
2022/05/17 06:02:06;;;;;;;0.00;0.00;;;16.50;99.90;;;;;;5072918;28;20255;-61
2022/05/17 06:04:33;;;;;;;0.00;0.00;;;16.60;99.90;;;;;;5073097;28;20671;-62
2022/05/17 06:06:59;;;;;;;0.00;0.00;;;16.70;99.90;;;;;;5072424;28;20821;-61
2022/05/17 06:09:27;;;;;;;0.10;0.10;;;16.90;99.90;;;;;;5072637;28;20232;-61
2022/05/17 06:11:54;;;;;;;0.10;0.10;;;16.90;99.90;;;;;;5072472;28;20231;-62
2022/05/17 06:14:22;;;;;;;0.00;0.00;;;16.90;99.90;;;;;;5073030;28;20205;-60
2022/05/17 06:16:49;;;;;;;0.10;0.10;;;16.90;99.90;;;;;;5072464;28;20212;-60
2022/05/17 06:19:16;;;;;;;0.10;0.10;;;16.90;99.90;;;;;;5072611;28;20232;-61
2022/05/17 06:21:43;;;;;;;0.00;0.00;;;16.90;99.90;;;;;;5073017;28;20232;-61
2022/05/17 06:24:10;;;;;;;17.37;1.47;;;16.90;99.90;;;;;;5072423;28;20201;-61
2022/05/17 06:26:36;;;;;;;0.00;0.00;;;16.90;99.90;;;;;;5072384;28;20205;-61
2022/05/17 06:29:04;;;;;;;0.07;0.07;;;16.90;99.90;;;;;;5072300;28;20282;-61
2022/05/17 06:31:32;;;;;;;0.10;0.10;;;16.90;99.90;;;;;;5072261;28;20266;-60
2022/05/17 06:33:59;;;;;;;0.00;0.00;;;17.00;99.90;;;;;;5072745;28;20208;-60
2022/05/17 06:36:25;;;;;;;0.10;0.10;;;17.00;99.90;;;;;;5071851;28;20262;-56
2022/05/17 06:38:52;;;;;;;0.10;0.10;;;17.00;99.90;;;;;;5071862;28;20201;-62
2022/05/17 06:41:19;;;;;;;0.07;0.07;;;17.10;99.90;;;;;;5071957;28;20225;-60
2022/05/17 06:43:46;;;;;;;0.10;0.10;;;17.00;99.90;;;;;;5072400;28;20216;-61
2022/05/17 06:46:13;;;;;;;0.00;0.00;;;17.10;99.90;;;;;;5072074;28;20588;-63
2022/05/17 06:48:41;;;;;;;0.00;0.00;;;17.10;99.90;;;;;;5071955;28;20645;-63
2022/05/17 06:51:09;;;;;;;0.00;0.00;;;17.10;99.90;;;;;;5072243;28;20225;-63
2022/05/17 06:53:35;;;;;;;0.10;0.10;;;17.10;99.90;;;;;;5072016;28;20220;-62
2022/05/17 06:56:05;;;;;;;0.07;0.07;;;17.00;99.90;;;;;;5071850;28;20212;-61
2022/05/17 06:58:33;;;;;;;0.10;0.10;;;17.00;99.90;;;;;;5072360;28;20246;-61
2022/05/17 07:00:59;;;;;;;0.10;0.10;;;16.90;99.90;;;;;;5071652;28;20201;-62
2022/05/17 07:03:26;;;;;;;0.47;0.47;;;17.10;99.90;;;;;;5072152;28;20215;-61
2022/05/17 07:05:54;;;;;;;0.00;0.00;;;17.10;99.90;;;;;;5071428;28;20251;-59
2022/05/17 07:08:22;;;;;;;0.10;0.10;;;17.20;99.90;;;;;;5071552;28;20756;-59
2022/05/17 07:13:42;;;;;;;0.00;0.00;;;17.40;99.90;;;;;;5035206;28;20342;-61
2022/05/17 07:16:09;;;;;;;0.00;0.00;;;17.70;99.90;;;;;;5071678;28;20216;-63
2022/05/17 07:18:36;;;;;;;0.00;0.00;;;17.80;99.90;;;;;;5070678;28;20209;-63
2022/05/17 07:21:04;;;;;;;0.00;0.00;;;17.90;99.90;;;;;;5071481;28;20208;-63
2022/05/17 07:23:31;;;;;;;0.00;0.00;;;17.90;99.90;;;;;;5071690;28;20209;-64
2022/05/17 07:25:58;;;;;;;0.00;0.00;;;17.90;99.90;;;;;;5071293;28;20205;-61
2022/05/17 07:28:25;;;;;;;0.00;0.00;;;17.90;99.90;;;;;;5071514;28;20200;-63
2022/05/17 07:30:52;;;;;;;0.00;0.00;;;18.00;99.90;;;;;;5071364;28;20271;-62
2022/05/17 07:33:20;;;;;;;0.10;0.10;;;18.20;99.90;;;;;;5071344;28;20200;-63
2022/05/17 07:35:47;;;;;;;0.00;0.00;;;18.40;99.90;;;;;;5071353;28;20209;-63
2022/05/17 07:38:18;;;;;;;0.00;0.00;;;18.40;99.90;;;;;;5070857;28;20605;-62
2022/05/17 07:40:44;;;;;;;0.00;0.00;;;18.40;99.90;;;;;;5071438;28;20676;-62
2022/05/17 07:43:12;;;;;;;0.10;0.10;;;18.60;99.90;;;;;;5071070;28;20240;-63
2022/05/17 07:45:39;;;;;;;0.00;0.00;;;18.70;99.90;;;;;;5071390;28;20288;-63
2022/05/17 07:48:06;;;;;;;0.00;0.00;;;18.80;99.90;;;;;;5070395;28;20239;-62
2022/05/17 07:50:33;;;;;;;0.00;0.00;;;18.90;99.90;;;;;;5070467;28;20224;-63
2022/05/17 07:53:06;;;;;;;0.00;0.00;;;18.90;99.90;;;;;;5071486;28;20253;-62
2022/05/17 07:55:35;;;;;;;0.00;0.00;;;18.80;99.90;;;;;;5071161;28;20209;-61
2022/05/17 07:58:03;;;;;;;0.00;0.00;;;18.80;99.90;;;;;;5070974;28;20211;-61
2022/05/17 08:00:30;;;;;;;0.00;0.00;;;18.70;99.90;;;;;;5070801;28;20254;-63
2022/05/17 08:02:58;;;;;;;0.00;0.00;;;18.70;99.90;;;;;;5071349;28;20225;-64
2022/05/17 08:05:25;;;;;;;0.00;0.00;;;18.80;99.90;;;;;;5071193;28;20212;-62
2022/05/17 08:07:52;;;;;;;0.00;0.00;;;19.00;99.90;;;;;;5070852;28;20239;-64
2022/05/17 08:10:19;;;;;;;0.00;0.00;;;19.20;99.90;;;;;;5070732;28;20639;-63
2022/05/17 08:12:48;;;;;;;0.00;0.00;;;19.40;99.90;;;;;;5070693;28;20723;-63
2022/05/17 08:15:15;;;;;;;0.00;0.00;;;19.60;99.90;;;;;;5070636;28;20255;-63
2022/05/17 08:17:42;;;;;;;0.00;0.00;;;19.60;99.90;;;;;;5069462;28;20209;-61
2022/05/17 08:20:10;;;;;;;0.20;0.20;;;19.70;99.90;;;;;;5068764;28;20201;-59
2022/05/17 08:22:38;;;;;;;0.00;0.00;;;19.70;99.90;;;;;;5071030;28;20236;-62
2022/05/17 08:27:54;;;;;;;0.00;0.00;;;19.80;99.90;;;;;;5070598;28;20199;-63
2022/05/17 08:30:22;;;;;;;0.00;0.00;;;19.80;94.20;;;;;;5070432;28;20278;-63
2022/05/17 08:35:37;;;;;;;0.00;0.00;;;19.80;93.30;;;;;;5070642;28;20705;-62
2022/05/17 08:38:04;;;;;;;0.07;0.07;;;19.80;66.20;;;;;;5069774;28;20205;-61
2022/05/17 08:40:33;;;;;;;0.00;0.00;;;19.90;81.80;;;;;;5070935;28;20209;-60
2022/05/17 08:43:11;;;;;;;0.03;0.03;;;19.90;94.10;;;;;;5070125;28;20278;-63
2022/05/17 08:45:44;;;;;;;0.00;0.00;;;19.90;99.80;;;;;;5070920;28;20228;-63
2022/05/17 08:48:16;;;;;;;0.00;0.00;;;19.90;87.50;;;;;;5069960;28;20209;-62
2022/05/17 08:50:46;;;;;;;0.00;0.00;;;19.90;97.00;;;;;;5070789;28;20224;-61
2022/05/17 08:53:19;;;;;;;0.00;0.00;;;20.00;99.90;;;;;;5071816;28;20205;-63
2022/05/17 08:55:49;;;;;;;0.00;0.00;;;19.90;72.60;;;;;;5072497;28;20266;-62
2022/05/17 08:58:22;;;;;;;0.00;0.00;;;19.90;71.60;;;;;;5071306;28;20700;-63
2022/05/17 09:00:54;;;;;;;0.00;0.00;;;19.80;45.90;;;;;;5070074;28;20640;-63
2022/05/17 09:03:36;;;;;;;0.00;0.00;;;19.70;20.10;;;;;;5074498;28;20209;-63
2022/05/17 09:06:07;;;;;;;0.00;0.00;;;19.70;57.50;;;;;;5074010;28;20204;-63
2022/05/17 09:08:41;;;;;;;0.00;0.00;;;19.70;84.60;;;;;;5073797;28;20215;-62
2022/05/17 09:11:16;;;;;;;0.00;0.00;;;19.80;99.10;;;;;;5073969;28;20240;-63
2022/05/17 09:13:52;;;;;;;0.00;0.00;;;19.90;99.90;;;;;;5073824;28;20200;-63
2022/05/17 09:16:21;;;;;;;0.00;0.00;;;20.00;80.40;;;;;;5073695;28;20213;-62
2022/05/17 09:18:49;;;;;;;0.10;0.10;;;20.10;95.20;;;;;;5073172;28;20304;-63
2022/05/17 09:21:28;;;;;;;0.00;0.00;;;20.20;92.10;;;;;;5073877;28;20233;-63
2022/05/17 09:23:55;;;;;;;0.00;0.00;;;20.30;99.90;;;;;;5073586;28;20205;-63
2022/05/17 09:26:22;;;;;;;0.00;0.00;;;20.40;62.40;;;;;;5073588;28;20212;-63
2022/05/17 09:28:53;;;;;;;0.00;0.00;;;20.50;53.60;;;;;;5073813;28;20255;-62
2022/05/17 09:31:29;;;;;;;0.10;0.10;;;20.50;57.20;;;;;;5073686;28;20232;-63
2022/05/17 09:33:57;;;;;;;0.00;0.00;;;20.50;27.30;;;;;;5073952;28;20201;-63
2022/05/17 09:36:25;;;;;;;0.00;0.00;;;20.60;46.10;;;;;;5072792;28;20211;-63
2022/05/17 09:38:54;;;;;;;0.30;0.30;;;20.60;51.30;;;;;;5073485;28;20209;-61
2022/05/17 09:41:27;;;;;;;0.00;0.00;;;20.60;1.00;;;;;;5073345;28;20224;-61
2022/05/17 09:44:01;;;;;;;0.00;0.00;;;20.60;99.90;;;;;;5073217;28;20259;-54
2022/05/17 09:46:30;;;;;;;0.00;0.00;;;20.50;99.90;;;;;;5073135;28;20732;-61
2022/05/17 09:54:33;;;;;;;0.00;0.00;;;20.50;99.90;;;;;;5055579;28;20566;-60
2022/05/17 09:57:14;;;;;;;0.00;0.00;;;20.60;99.90;;;;;;5072937;28;20205;-60
2022/05/17 09:59:43;;;;;;;0.00;0.00;;;20.70;99.90;;;;;;5071929;28;20276;-60
2022/05/17 10:02:34;;;;;;;0.00;0.00;;;20.90;99.90;;;;;;5072476;28;20228;-60
2022/05/17 10:05:10;;;;;;;0.00;0.00;;;21.10;1.00;;;;;;5073199;28;20209;-60
2022/05/17 10:07:37;;;;;;;0.00;0.00;;;21.30;99.90;;;;;;5072303;28;20558;-61
2022/05/17 10:10:09;;;;;;;0.00;0.00;;;21.40;1.00;;;;;;5072977;28;20228;-63
2022/05/17 10:12:38;;;;;;;0.00;0.00;;;21.30;99.90;;;;;;5071426;28;20712;-64
2022/05/17 10:15:11;;;;;;;0.03;0.03;;;21.20;99.90;;;;;;5072411;28;20204;-62
2022/05/17 10:17:43;;;;;;;0.00;0.00;;;21.20;99.90;;;;;;5072561;28;20311;-62
2022/05/17 10:20:15;;;;;;;0.00;0.00;;;21.20;99.90;;;;;;5072305;28;20791;-61
2022/05/17 10:22:51;;;;;;;0.00;0.00;;;21.20;99.90;;;;;;5073077;28;20260;-62
2022/05/17 10:25:25;;;;;;;0.00;0.00;;;21.20;99.90;;;;;;5072534;28;20617;-63
2022/05/17 10:27:57;;;;;;;0.00;0.00;;;21.20;99.90;;;;;;5073430;28;20211;-63
2022/05/17 10:30:37;;;;;;;0.00;0.00;;;21.10;11.30;;;;;;5072243;28;20220;-64
2022/05/17 10:33:07;;;;;;;0.00;0.00;;;21.10;39.80;;;;;;5072730;28;20224;-63
2022/05/17 10:35:36;;;;;;;0.00;0.00;;;21.20;99.90;;;;;;5071968;28;20215;-61
2022/05/17 10:38:10;;;;;;;0.00;0.00;;;21.10;10.60;;;;;;5070791;28;20672;-62
2022/05/17 10:40:43;;;;;;;0.07;0.07;;;21.10;1.00;;;;;;5071981;28;20749;-62
2022/05/17 10:43:15;;;;;;;0.00;0.00;;;20.90;1.00;;;;;;5071896;28;20232;-61
2022/05/17 10:45:47;;;;;;;0.00;0.00;;;20.80;92.90;;;;;;5072568;28;20246;-62
2022/05/17 10:48:23;;;;;;;0.10;0.10;;;20.70;1.00;;;;;;5072014;28;20205;-63
2022/05/17 10:50:56;;;;;;;0.00;0.00;;;20.80;99.90;;;;;;5071901;28;20220;-63
2022/05/17 10:53:44;;;;;;;6.20;3.50;;;21.00;99.90;;;;;;5071497;28;20208;-63
2022/05/17 10:56:21;;;;;;;9.57;3.40;;;21.20;99.90;;;;;;5071693;28;20213;-63
2022/05/17 10:58:55;;;;;;;9.50;4.40;;;21.20;1.00;;;;;;5072215;28;20216;-62
2022/05/17 11:01:32;;;;;;;8.17;3.73;;;21.10;1.00;;;;;;5071204;28;20715;-64
2022/05/17 11:04:26;;;;;;;7.03;3.40;;;21.00;1.00;;;;;;5071829;28;20215;-63
2022/05/17 11:07:02;;;;;;;10.37;3.47;;;21.20;10.70;;;;;;5071504;28;20209;-62
2022/05/17 11:09:40;;;;;;;12.00;3.60;;;21.50;6.00;;;;;;5071488;28;20211;-63
2022/05/17 11:12:09;;;;;;;8.77;3.10;;;21.70;1.00;;;;;;5071514;28;20597;-64
2022/05/17 11:14:43;;;;;;;6.00;3.03;;;21.90;1.00;;;;;;5071756;28;20212;-65
2022/05/17 11:17:24;;;;;;;5.63;2.50;;;21.90;1.00;;;;;;5071770;28;20640;-64
2022/05/17 11:19:56;;;;;;;5.50;2.37;;;21.80;1.00;;;;;;5071059;28;20208;-63
2022/05/17 11:22:40;;;;;;;7.63;2.17;;;21.70;1.00;;;;;;5072170;28;20286;-64
2022/05/17 11:25:30;;;;;;;6.63;2.10;;;21.70;1.00;;;;;;5071310;28;20201;-61
2022/05/17 11:28:33;;;;;;;6.60;2.03;;;21.70;1.00;;;;;;5071494;28;20229;-61
2022/05/17 11:31:06;;;;;;;6.23;2.40;;;21.70;1.00;;;;;;5070736;28;20283;-62
2022/05/17 11:33:38;;;;;;;7.43;2.27;;;21.70;1.00;;;;;;5071823;28;20289;-62
2022/05/17 11:36:07;;;;;;;9.43;2.43;;;21.70;1.00;;;;;;5071271;28;20204;-62
2022/05/17 11:38:55;;;;;;;4.27;2.00;;;21.50;1.00;;;;;;5070896;28;20205;-63
2022/05/17 11:41:38;;;;;;;4.90;1.83;;;21.50;1.00;;;;;;5066258;28;20229;-63
2022/05/17 11:44:20;;;;;;;4.57;2.20;;;21.50;1.00;;;;;;5070808;28;20205;-62
2022/05/17 11:46:57;;;;;;;4.07;2.10;;;21.60;1.00;;;;;;5071028;28;20217;-64
2022/05/17 11:49:45;;;;;;;7.70;2.50;;;21.60;1.00;;;;;;5070831;28;20200;-64
2022/05/17 11:52:30;;;;;;;6.20;2.10;;;21.60;1.00;;;;;;5071374;28;20225;-63
2022/05/17 11:54:59;;;;;;;9.23;2.50;;;21.50;1.00;;;;;;5070526;28;20208;-63
2022/05/17 11:57:59;;;;;;;5.80;2.20;;;21.60;1.00;;;;;;5071089;28;20334;-62
2022/05/17 12:00:48;;;;;;;8.33;3.10;;;21.60;1.00;;;;;;5071417;28;20295;-64
2022/05/17 12:03:49;;;;;;;6.77;2.90;;;21.60;1.00;;;;;;5066743;28;20212;-62
2022/05/17 12:06:38;;;;;;;5.10;3.00;;;21.50;1.00;;;;;;5070952;28;20204;-64
2022/05/17 12:09:13;;;;;;;7.13;2.30;;;21.30;1.00;;;;;;5070882;28;20241;-61
2022/05/17 12:11:48;;;;;;;8.23;1.87;;;21.30;1.00;;;;;;5071116;28;20228;-62
2022/05/17 12:14:21;;;;;;;4.00;1.90;;;21.20;1.00;;;;;;5071026;28;20215;-62
2022/05/17 12:16:51;;;;;;;5.27;2.10;;;21.10;1.00;;;;;;5070380;28;20220;-62
2022/05/17 12:19:26;;;;;;;4.00;1.80;;;21.00;1.00;;;;;;5070684;28;20205;-61
2022/05/17 12:21:58;;;;;;;2.70;1.60;;;20.90;1.00;;;;;;5071165;28;20808;-61
2022/05/17 12:24:33;;;;;;;4.53;1.93;;;20.80;1.00;;;;;;5071291;28;20220;-61
2022/05/17 12:27:18;;;;;;;6.70;2.07;;;20.70;1.00;;;;;;5070076;28;20365;-61
2022/05/17 12:32:36;;;;;;;7.40;2.00;;;20.50;1.00;;;;;;5070698;28;20227;-61
2022/05/17 12:35:05;;;;;;;7.30;2.43;;;20.50;1.00;;;;;;5070976;28;20204;-61
2022/05/17 12:37:38;;;;;;;6.47;2.03;;;20.50;1.00;;;;;;5072535;28;20295;-61
2022/05/17 12:43:06;;;;;;;4.17;2.30;;;20.60;1.00;;;;;;5074762;28;20583;-61
2022/05/17 12:45:36;;;;;;;9.03;2.70;;;20.50;1.00;;;;;;5074651;28;20580;-63
2022/05/17 12:48:13;;;;;;;5.87;2.47;;;20.40;1.00;;;;;;5074111;28;20236;-63
2022/05/17 12:50:44;;;;;;;8.80;2.47;;;20.30;1.00;;;;;;5074177;28;20315;-63
2022/05/17 12:53:22;;;;;;;5.97;2.13;;;20.30;1.00;;;;;;5074821;28;20236;-62
2022/05/17 12:56:04;;;;;;;5.17;2.10;;;20.30;1.00;;;;;;5074058;28;20299;-64
2022/05/17 12:58:32;;;;;;;5.90;2.00;;;20.30;1.00;;;;;;5074102;28;20205;-61
2022/05/17 13:01:01;;;;;;;3.77;1.90;;;20.30;43.00;;;;;;5074208;28;20284;-61
2022/05/17 13:03:31;;;;;;;7.87;2.47;;;20.40;99.90;;;;;;5074238;28;20215;-61
2022/05/17 13:06:02;;;;;;;5.33;1.70;;;20.40;1.00;;;;;;5074160;28;20211;-62
2022/05/17 13:08:32;;;;;;;7.70;2.57;;;20.50;1.00;;;;;;5073314;28;20212;-61
2022/05/17 13:11:03;;;;;;;6.57;2.30;;;20.60;1.00;;;;;;5073858;28;20710;-63
2022/05/17 13:13:32;;;;;;;7.70;2.33;;;20.60;1.00;;;;;;5074483;28;20204;-63
2022/05/17 13:16:02;;;;;;;3.80;2.07;;;20.50;1.00;;;;;;5073828;28;20240;-64
2022/05/17 13:18:37;;;;;;;4.53;1.87;;;20.50;1.00;;;;;;5073606;28;20204;-64
2022/05/17 13:21:04;;;;;;;3.33;2.30;;;20.60;39.90;;;;;;5073951;28;20208;-63
2022/05/17 13:23:33;;;;;;;4.60;1.97;;;20.70;1.00;;;;;;5073825;28;20204;-64
2022/05/17 13:26:03;;;;;;;4.23;2.00;;;20.70;1.00;;;;;;5073441;28;20584;-64